EGPH Airport Information

Runway Information
Runway 06 Length 8400 ft width 150 ft
Elevation 110 ft Threshold 700 ft Heading 59
Runway 24 Length 8400 ft Width 150 ft
Elevation 100 ft Threshold 700 ft Heading 239
Runway 08 Length 2621 ft width 150 ft
Elevation 100 ft Threshold 0 ft Heading 70
Runway 26 Length 2621 ft Width 150 ft
Elevation 110 ft Threshold 0 ft Heading 250
Runway 12 Length 5730 ft width 150 ft
Elevation 99 ft Threshold 0 ft Heading 119
Runway 30 Length 5730 ft Width 150 ft
Elevation 134 ft Threshold 204 ft Heading 299
Airport Frequencies
Type APP Name APP Frequency 121.2 MHZ
Type ATIS Name ATIS Frequency 131.35 MHZ
Type GND Name GND Frequency 121.75 MHZ
Type TWR Name TWR Frequency 118.7 MHZ
Airport Navaids
Type NDB Name Edinburgh Frequency 341 KHZ
Type NDB Name Edinburgh Frequency 368 KHZ
Airport Weather Information & NOTAM
ADDS - METARS form results

(0125 UTC 24 May 2019)
Data provider http://aviationweather.gov/metar/data/
 
METAR text: EGPH 240120Z 25009KT 9999 SCT022 09/06 Q1014
Conditions at: EGPH (EDINBURGH AIRPOR, GB) observed 0120 UTC 24 May 2019
Temperature: 9.0°C (48°F)
Dewpoint: 6.0°C (43°F) [RH = 81%]
Pressure (altimeter): 29.94 inches Hg (1014.0 mb)
Winds: from the WSW (250 degrees) at 10 MPH (9 knots; 4.6 m/s)
Visibility: 6 or more miles (10+ km)
Ceiling: at least 12,000 feet AGL
Clouds: scattered clouds at 2200 feet AGL
Weather: no significant weather observed at this time

METAR text: EGPH 240050Z 25009KT 9999 FEW021 09/06 Q1014
Conditions at: EGPH (EDINBURGH AIRPOR, GB) observed 0050 UTC 24 May 2019
Temperature: 9.0°C (48°F)
Dewpoint: 6.0°C (43°F) [RH = 81%]
Pressure (altimeter): 29.94 inches Hg (1014.0 mb)
Winds: from the WSW (250 degrees) at 10 MPH (9 knots; 4.6 m/s)
Visibility: 6 or more miles (10+ km)
Ceiling: at least 12,000 feet AGL
Clouds: few clouds at 2100 feet AGL
Weather: no significant weather observed at this time

Forecast for: EGPH (EDINBURGH AIRPOR, GB)
Text: TAF EGPH 232257Z 2400/2424 25011KT 9999 FEW025
Forecast period: 0000 UTC 24 May 2019 to 0000 UTC 25 May 2019
Forecast type: FROM: standard forecast or significant change
Winds: from the WSW (250 degrees) at 13 MPH (11 knots; 5.7 m/s)
Visibility: 6 or more miles 10+ km)
Ceiling: at least 12,000 feet AGL
Clouds: few clouds at 2500 feet AGL
Weather: no significant weather forecast for this period